Observation data for Anton on 02/15/2017      Previous  Date  Next       Current Mesonet Observations  Soil Data  Daily Summary Page  Observations in Plain Language
KAOS 150600Z 29011KT 01/M01 A3019 RMK A01 T00051011  RH  090%=      5-min Rain = 0
KAOS 150605Z 29011KT 01/M01 A3019 RMK A01 T00051011  RH  090%=      5-min Rain = 0
KAOS 150610Z 29011KT 01/M01 A3019 RMK A01 T00061011  RH  089%=      5-min Rain = 0
KAOS 150615Z 29012KT 01/M01 A3019 RMK A01 T00071011  RH  089%=      5-min Rain = 0
KAOS 150620Z 29012KT 01/M01 A3019 RMK A01 T00071011  RH  089%=      5-min Rain = 0
KAOS 150625Z 29012KT 01/M01 A302 RMK A01 T00071011  RH  089%=      5-min Rain = 0
KAOS 150630Z 30011KT 01/M01 A302 RMK A01 T00071011  RH  089%=      5-min Rain = 0
KAOS 150635Z 30011KT 01/M01 A302 RMK A01 T00081011  RH  088%=      5-min Rain = 0
KAOS 150640Z 30011KT 01/M01 A302 RMK A01 T00081011  RH  088%=      5-min Rain = 0
KAOS 150645Z 29011KT 01/M01 A302 RMK A01 T00081011  RH  088%=      5-min Rain = 0
KAOS 150650Z 29011KT 01/M01 A302 RMK A01 T00081011  RH  088%=      5-min Rain = 0
KAOS 150655Z 30011KT 01/M01 A302 RMK A01 T00071011  RH  089%=      5-min Rain = 0
KAOS 150700Z 30011KT 01/M01 A302 RMK A01 T00071011  RH  089%=      5-min Rain = 0
KAOS 150705Z 30011KT 01/M01 A302 RMK A01 T00071011  RH  089%=      5-min Rain = 0
KAOS 150710Z 30011KT 01/M01 A302 RMK A01 T00071012  RH  088%=      5-min Rain = 0
KAOS 150715Z 30011KT 01/M01 A302 RMK A01 T00071012  RH  088%=      5-min Rain = 0
KAOS 150720Z 30011KT 01/M01 A302 RMK A01 T00061012  RH  089%=      5-min Rain = 0
KAOS 150725Z 30012KT 01/M01 A302 RMK A01 T00061012  RH  088%=      5-min Rain = 0
KAOS 150730Z 30012KT 01/M01 A302 RMK A01 T00061013  RH  088%=      5-min Rain = 0
KAOS 150735Z 31011KT 01/M01 A302 RMK A01 T00061013  RH  088%=      5-min Rain = 0
KAOS 150740Z 31010KT 01/M01 A302 RMK A01 T00051013  RH  088%=      5-min Rain = 0
KAOS 150745Z 31011KT 01/M01 A302 RMK A01 T00051013  RH  088%=      5-min Rain = 0
KAOS 150750Z 31011KT 01/M01 A302 RMK A01 T00051013  RH  088%=      5-min Rain = 0
KAOS 150755Z 31010KT 01/M01 A302 RMK A01 T00051013  RH  088%=      5-min Rain = 0
KAOS 150800Z 31010KT 01/M01 A302 RMK A01 T00051013  RH  088%=      5-min Rain = 0
KAOS 150805Z 31009KT 00/M01 A302 RMK A01 T00041013  RH  089%=      5-min Rain = 0
KAOS 150810Z 31009KT 00/M01 A302 RMK A01 T00041014  RH  089%=      5-min Rain = 0
KAOS 150815Z 31009KT 00/M01 A302 RMK A01 T00031014  RH  089%=      5-min Rain = 0
KAOS 150820Z 31009KT 00/M01 A302 RMK A01 T00031014  RH  089%=      5-min Rain = 0
KAOS 150825Z 31009KT 00/M01 A3021 RMK A01 T00031014  RH  089%=      5-min Rain = 0
KAOS 150830Z 31008KT 00/M01 A3021 RMK A01 T00021014  RH  090%=      5-min Rain = 0
KAOS 150835Z 31009KT 00/M02 A3021 RMK A01 T00021015  RH  090%=      5-min Rain = 0
KAOS 150840Z 31009KT 00/M02 A3021 RMK A01 T00011015  RH  089%=      5-min Rain = 0
KAOS 150845Z 31009KT 00/M02 A3021 RMK A01 T00011015  RH  090%=      5-min Rain = 0
KAOS 150850Z 31009KT 00/M02 A3021 RMK A01 T00011015  RH  090%=      5-min Rain = 0
KAOS 150855Z 31009KT 00/M02 A3021 RMK A01 T00011016  RH  089%=      5-min Rain = 0
KAOS 150900Z 31009KT 00/M02 A3021 RMK A01 T00011016  RH  089%=      5-min Rain = 0
KAOS 150905Z 31009KT 00/02 A302 RMK A01 T00000-16  RH  090%=      5-min Rain = 0
KAOS 150910Z 31009KT 00/02 A302 RMK A01 T00-00-16  RH  090%=      5-min Rain = 0
KAOS 150915Z 31008KT M00/M02 A302 RMK A01 T10011016  RH  090%=      5-min Rain = 0
KAOS 150920Z 31008KT M00/M02 A302 RMK A01 T10011016  RH  090%=      5-min Rain = 0
KAOS 150925Z 31008KT M00/M02 A302 RMK A01 T10021016  RH  091%=      5-min Rain = 0
KAOS 150930Z 31008KT M00/M02 A302 RMK A01 T10021016  RH  091%=      5-min Rain = 0
KAOS 150935Z 31009KT M00/M02 A302 RMK A01 T10031016  RH  091%=      5-min Rain = 0
KAOS 150940Z 31009KT M00/M02 A302 RMK A01 T10031017  RH  091%=      5-min Rain = 0
KAOS 150945Z 31009KT M00/M02 A3019 RMK A01 T10031017  RH  091%=      5-min Rain = 0
KAOS 150950Z 31009KT M00/M02 A3019 RMK A01 T10031017  RH  091%=      5-min Rain = 0
KAOS 150955Z 31009KT M00/M02 A3019 RMK A01 T10031018  RH  091%=      5-min Rain = 0
KAOS 151000Z 31009KT M00/M02 A3019 RMK A01 T10041018  RH  091%=      5-min Rain = 0
KAOS 151005Z 31009KT M00/M02 A3019 RMK A01 T10041018  RH  092%=      5-min Rain = 0
KAOS 151010Z 31009KT M00/M02 A3019 RMK A01 T10041018  RH  091%=      5-min Rain = 0
KAOS 151015Z 31008KT M00/M02 A3019 RMK A01 T10041018  RH  091%=      5-min Rain = 0
KAOS 151020Z 31009KT M00/M02 A3019 RMK A01 T10041018  RH  091%=      5-min Rain = 0
KAOS 151025Z 31008KT M00/M02 A3019 RMK A01 T10041018  RH  091%=      5-min Rain = 0
KAOS 151030Z 30008KT M00/M02 A3019 RMK A01 T10041019  RH  091%=      5-min Rain = 0
KAOS 151035Z 30007KT M00/M02 A302 RMK A01 T10041019  RH  091%=      5-min Rain = 0
KAOS 151040Z 29007KT M01/M02 A302 RMK A01 T10051019  RH  091%=      5-min Rain = 0
KAOS 151045Z 29007KT M01/M02 A302 RMK A01 T10071020  RH  092%=      5-min Rain = 0
KAOS 151050Z 28007KT M01/M02 A302 RMK A01 T10081021  RH  092%=      5-min Rain = 0
KAOS 151055Z 29008KT M01/M02 A302 RMK A01 T10091022  RH  092%=      5-min Rain = 0
KAOS 151100Z 29008KT M01/M02 A302 RMK A01 T10101022  RH  092%=      5-min Rain = 0
KAOS 151105Z 30007KT M01/M02 A302 RMK A01 T10091021  RH  093%=      5-min Rain = 0
KAOS 151110Z 30007KT M01/M02 A302 RMK A01 T10091021  RH  093%=      5-min Rain = 0
KAOS 151115Z 29007KT M01/M02 A302 RMK A01 T10101021  RH  093%=      5-min Rain = 0
KAOS 151120Z 30007KT M01/M02 A302 RMK A01 T10101021  RH  093%=      5-min Rain = 0
KAOS 151125Z 30007KT M01/M02 A302 RMK A01 T10101021  RH  093%=      5-min Rain = 0
KAOS 151130Z 29007KT M01/M02 A3021 RMK A01 T10111021  RH  093%=      5-min Rain = 0
KAOS 151135Z 29007KT M01/M02 A3021 RMK A01 T10111021  RH  093%=      5-min Rain = 0
KAOS 151140Z 30007KT M01/M02 A3021 RMK A01 T10111021  RH  094%=      5-min Rain = 0
KAOS 151145Z 29007KT M01/M02 A3021 RMK A01 T10111022  RH  093%=      5-min Rain = 0
KAOS 151150Z 29007KT M01/M02 A3021 RMK A01 T10131023  RH  093%=      5-min Rain = 0
KAOS 151155Z 29008KT M01/M02 A3021 RMK A01 T10141024  RH  093%=      5-min Rain = 0
KAOS 151200Z 29008KT M01/M02 A3021 RMK A01 T10141024  RH  093%=      5-min Rain = 0
KAOS 151205Z 30008KT M01/M02 A3021 RMK A01 T10131023  RH  093%=      5-min Rain = 0
KAOS 151210Z 29008KT M01/M02 A3021 RMK A01 T10121024  RH  092%=      5-min Rain = 0
KAOS 151215Z 29008KT M01/M03 A3021 RMK A01 T10141025  RH  093%=      5-min Rain = 0
KAOS 151220Z 29008KT M02/M03 A3021 RMK A01 T10151026  RH  093%=      5-min Rain = 0
KAOS 151225Z 29009KT M02/M03 A3021 RMK A01 T10151025  RH  093%=      5-min Rain = 0
KAOS 151230Z 29009KT M01/M03 A3022 RMK A01 T10131025  RH  093%=      5-min Rain = 0
KAOS 151235Z 29009KT M01/M03 A3022 RMK A01 T10131025  RH  092%=      5-min Rain = 0
KAOS 151240Z 30009KT M01/M02 A3022 RMK A01 T10121024  RH  092%=      5-min Rain = 0
KAOS 151245Z 30009KT M01/M02 A3022 RMK A01 T10101024  RH  091%=      5-min Rain = 0
KAOS 151250Z 30010KT M01/M03 A3022 RMK A01 T10101025  RH  090%=      5-min Rain = 0
KAOS 151255Z 30009KT M01/M03 A3022 RMK A01 T10111026  RH  090%=      5-min Rain = 0
KAOS 151300Z 29009KT M01/M03 A3023 RMK A01 T10131026  RH  091%=      5-min Rain = 0
KAOS 151305Z 29009KT M01/M03 A3023 RMK A01 T10141027  RH  092%=      5-min Rain = 0
KAOS 151310Z 29009KT M02/M03 A3023 RMK A01 T10161027  RH  092%=      5-min Rain = 0
KAOS 151315Z 29008KT M02/M03 A3023 RMK A01 T10161027  RH  093%=      5-min Rain = 0
KAOS 151320Z 30008KT M02/M03 A3023 RMK A01 T10151026  RH  093%=      5-min Rain = 0
KAOS 151325Z 30009KT M02/M03 A3023 RMK A01 T10151026  RH  092%=      5-min Rain = 0
KAOS 151330Z 30009KT M01/M03 A3023 RMK A01 T10141027  RH  092%=      5-min Rain = 0
KAOS 151335Z 30009KT M01/M03 A3024 RMK A01 T10131027  RH  091%=      5-min Rain = 0
KAOS 151340Z 30009KT M01/M03 A3024 RMK A01 T10131027  RH  091%=      5-min Rain = 0
KAOS 151345Z 30009KT M01/M03 A3024 RMK A01 T10121027  RH  090%=      5-min Rain = 0
KAOS 151350Z 31009KT M01/M03 A3024 RMK A01 T10121027  RH  090%=      5-min Rain = 0
KAOS 151355Z 31009KT M01/M03 A3024 RMK A01 T10111026  RH  090%=      5-min Rain = 0
KAOS 151400Z 30009KT M01/M03 A3024 RMK A01 T10111026  RH  090%=      5-min Rain = 0
KAOS 151405Z 31008KT M01/M03 A3024 RMK A01 T10111026  RH  090%=      5-min Rain = 0
KAOS 151410Z 31008KT M01/M02 A3025 RMK A01 T10091024  RH  090%=      5-min Rain = 0
KAOS 151415Z 31009KT M01/M02 A3025 RMK A01 T10081024  RH  090%=      5-min Rain = 0
KAOS 151420Z 31009KT M01/M02 A3025 RMK A01 T10061023  RH  089%=      5-min Rain = 0
KAOS 151425Z 31009KT M00/M02 A3025 RMK A01 T10041022  RH  089%=      5-min Rain = 0
KAOS 151430Z 32009KT M00/M02 A3025 RMK A01 T10031021  RH  089%=      5-min Rain = 0
KAOS 151435Z 32008KT M00/M02 A3025 RMK A01 T10011020  RH  088%=      5-min Rain = 0
KAOS 151440Z 32008KT 00/M02 A3026 RMK A01 T00011018  RH  087%=      5-min Rain = 0
KAOS 151445Z 32007KT 00/M02 A3026 RMK A01 T00041016  RH  087%=      5-min Rain = 0
KAOS 151450Z 32008KT 01/M01 A3026 RMK A01 T00071014  RH  087%=      5-min Rain = 0
KAOS 151455Z 32007KT 01/M01 A3026 RMK A01 T00121012  RH  085%=      5-min Rain = 0
KAOS 151500Z 33008KT 02/M01 A3027 RMK A01 T00161011  RH  083%=      5-min Rain = 0
KAOS 151505Z 33009KT 02/M01 A3027 RMK A01 T00201014  RH  079%=      5-min Rain = 0
KAOS 151510Z 33010KT 02/M01 A3027 RMK A01 T00221014  RH  077%=      5-min Rain = 0
KAOS 151515Z 33010KT 02/M01 A3027 RMK A01 T00231013  RH  078%=      5-min Rain = 0
KAOS 151520Z 33011KT 03/M01 A3027 RMK A01 T00251013  RH  077%=      5-min Rain = 0
KAOS 151525Z 34010KT 03/M01 A3027 RMK A01 T00271012  RH  076%=      5-min Rain = 0
KAOS 151530Z 34010KT 03/M01 A3028 RMK A01 T00291011  RH  076%=      5-min Rain = 0
KAOS 151535Z 34009G14KT 03/M01 A3028 RMK A01 T00311010  RH  075%=      5-min Rain = 0
KAOS 151540Z 34010G15KT 03/M01 A3028 RMK A01 T00341008  RH  075%=      5-min Rain = 0
KAOS 151545Z 34012KT 03/M01 A3028 RMK A01 T00341013  RH  072%=      5-min Rain = 0
KAOS 151550Z 34011KT 04/M01 A3028 RMK A01 T00351010  RH  073%=      5-min Rain = 0
KAOS 151555Z 34010KT 04/M01 A3028 RMK A01 T00361008  RH  074%=      5-min Rain = 0
KAOS 151600Z 34008KT 04/00 A3028 RMK A01 T00400001  RH  076%=      5-min Rain = 0
KAOS 151605Z 34008KT 04/00 A3028 RMK A01 T00430001  RH  075%=      5-min Rain = 0
KAOS 151610Z 34009KT 05/M00 A3028 RMK A01 T00451001  RH  072%=      5-min Rain = 0
KAOS 151615Z 35009KT 05/M00 A3028 RMK A01 T00471002  RH  072%=      5-min Rain = 0
KAOS 151620Z 35009KT 05/00 A3028 RMK A01 T00480001  RH  072%=      5-min Rain = 0
KAOS 151625Z 35008KT 05/00 A3028 RMK A01 T00510003  RH  072%=      5-min Rain = 0
KAOS 151630Z 35008KT 05/00 A3028 RMK A01 T00530004  RH  072%=      5-min Rain = 0
KAOS 151635Z 35008KT 06/01 A3028 RMK A01 T00550006  RH  072%=      5-min Rain = 0
KAOS 151640Z 36009KT 06/01 A3028 RMK A01 T00560005  RH  070%=      5-min Rain = 0
KAOS 151645Z 36009KT 06/01 A3028 RMK A01 T00580006  RH  070%=      5-min Rain = 0
KAOS 151650Z 36008KT 06/01 A3028 RMK A01 T00610008  RH  070%=      5-min Rain = 0
KAOS 151655Z 00007KT 06/01 A3028 RMK A01 T00640013  RH  071%=      5-min Rain = 0
KAOS 151700Z 36008KT 07/01 A3028 RMK A01 T00660010  RH  068%=      5-min Rain = 0
KAOS 151705Z 35008KT 07/01 A3027 RMK A01 T00700011  RH  067%=      5-min Rain = 0
KAOS 151710Z 34008KT 07/01 A3027 RMK A01 T00720005  RH  063%=      5-min Rain = 0
KAOS 151715Z 35007KT 07/01 A3027 RMK A01 T00730006  RH  063%=      5-min Rain = 0
KAOS 151720Z 35007G12KT 08/01 A3027 RMK A01 T00760007  RH  062%=      5-min Rain = 0
KAOS 151725Z 35008KT 08/00 A3027 RMK A01 T00770004  RH  060%=      5-min Rain = 0
KAOS 151730Z 35007KT 08/00 A3027 RMK A01 T00790003  RH  060%=      5-min Rain = 0
KAOS 151735Z 35007KT 08/01 A3027 RMK A01 T00830010  RH  061%=      5-min Rain = 0
KAOS 151740Z 00007KT 08/01 A3027 RMK A01 T00830005  RH  059%=      5-min Rain = 0
KAOS 151745Z 35009KT 08/01 A3027 RMK A01 T00840006  RH  059%=      5-min Rain = 0
KAOS 151750Z 36007KT 09/00 A3027 RMK A01 T00850003  RH  057%=      5-min Rain = 0
KAOS 151755Z 35008KT 09/01 A3027 RMK A01 T00870006  RH  057%=      5-min Rain = 0
KAOS 151800Z 35007KT 09/01 A3027 RMK A01 T00880006  RH  057%=      5-min Rain = 0
KAOS 151805Z 35008KT 09/M00 A3026 RMK A01 T00901002  RH  053%=      5-min Rain = 0
KAOS 151810Z 35006KT 09/00 A3026 RMK A01 T00910002  RH  055%=      5-min Rain = 0
KAOS 151815Z 36006KT 09/M00 A3026 RMK A01 T00921001  RH  053%=      5-min Rain = 0
KAOS 151820Z 00008KT 09/00 A3026 RMK A01 T00930004  RH  054%=      5-min Rain = 0
KAOS 151825Z 35008KT 09/00 A3025 RMK A01 T00940000  RH  053%=      5-min Rain = 0
KAOS 151830Z 35005G11KT 10/00 A3025 RMK A01 T00960001  RH  052%=      5-min Rain = 0
KAOS 151835Z 33007KT 10/M00 A3025 RMK A01 T00981002  RH  050%=      5-min Rain = 0
KAOS 151840Z 00009KT 10/01 A3025 RMK A01 T00990006  RH  053%=      5-min Rain = 0
KAOS 151845Z 35009KT 10/00 A3024 RMK A01 T00990002  RH  052%=      5-min Rain = 0
KAOS 151850Z 34006G11KT 10/M01 A3024 RMK A01 T00981005  RH  049%=      5-min Rain = 0
KAOS 151855Z 36008KT 10/00 A3024 RMK A01 T01010000  RH  050%=      5-min Rain = 0
KAOS 151900Z 35005G10KT 10/M00 A3024 RMK A01 T01011003  RH  049%=      5-min Rain = 0
KAOS 151905Z 33007KT 10/M00 A3023 RMK A01 T01031004  RH  048%=      5-min Rain = 0
KAOS 151910Z 32005G12KT 10/M01 A3023 RMK A01 T01021008  RH  047%=      5-min Rain = 0
KAOS 151915Z 32007KT 10/M01 A3023 RMK A01 T01041007  RH  047%=      5-min Rain = 0
KAOS 151920Z 34007G14KT 11/00 A3022 RMK A01 T01060000  RH  048%=      5-min Rain = 0
KAOS 151925Z 32008KT 11/M01 A3022 RMK A01 T01081007  RH  046%=      5-min Rain = 0
KAOS 151930Z 31008G13KT 11/M01 A3022 RMK A01 T01091005  RH  046%=      5-min Rain = 0
KAOS 151935Z 32006KT 11/M01 A3021 RMK A01 T01101007  RH  045%=      5-min Rain = 0
KAOS 151940Z 32007KT 11/M01 A3021 RMK A01 T01091009  RH  045%=      5-min Rain = 0
KAOS 151945Z 32006G12KT 11/M01 A3021 RMK A01 T01101006  RH  045%=      5-min Rain = 0
KAOS 151950Z 32008KT 11/M01 A3021 RMK A01 T01091010  RH  044%=      5-min Rain = 0
KAOS 151955Z 30006KT 11/M01 A302 RMK A01 T01101013  RH  043%=      5-min Rain = 0
KAOS 152000Z 30006KT 11/M02 A302 RMK A01 T01091016  RH  042%=      5-min Rain = 0
KAOS 152005Z 27004G9KT 11/M02 A302 RMK A01 T01101015  RH  042%=      5-min Rain = 0
KAOS 152010Z 32008KT 11/M01 A302 RMK A01 T01121011  RH  043%=      5-min Rain = 0
KAOS 152015Z 35008KT 11/M01 A3019 RMK A01 T01121010  RH  043%=      5-min Rain = 0
KAOS 152020Z 32005G10KT 11/M02 A3019 RMK A01 T01131015  RH  041%=      5-min Rain = 0
KAOS 152025Z 29002KT 11/M02 A3019 RMK A01 T01131022  RH  039%=      5-min Rain = 0
KAOS 152030Z 34007KT 12/M01 A3018 RMK A01 T01171009  RH  042%=      5-min Rain = 0
KAOS 152035Z 02007KT 12/M01 A3018 RMK A01 T01171009  RH  042%=      5-min Rain = 0
KAOS 152040Z 33006KT 12/M02 A3018 RMK A01 T01151018  RH  040%=      5-min Rain = 0
KAOS 152045Z 36007KT 12/M01 A3018 RMK A01 T01161012  RH  041%=      5-min Rain = 0
KAOS 152050Z 35004KT 12/M02 A3018 RMK A01 T01161017  RH  040%=      5-min Rain = 0
KAOS 152055Z 33005KT 12/M02 A3017 RMK A01 T01171015  RH  040%=      5-min Rain = 0
KAOS 152100Z 29003G8KT 12/M03 A3017 RMK A01 T01171026  RH  037%=      5-min Rain = 0
KAOS 152105Z 32004G9KT 12/M02 A3017 RMK A01 T01181023  RH  038%=      5-min Rain = 0
KAOS 152110Z 32006G11KT 12/M02 A3017 RMK A01 T01191020  RH  038%=      5-min Rain = 0
KAOS 152115Z 30006G11KT 12/M02 A3017 RMK A01 T01181019  RH  039%=      5-min Rain = 0
KAOS 152120Z 30004KT 12/M02 A3017 RMK A01 T01201022  RH  037%=      5-min Rain = 0
KAOS 152125Z 31004G9KT 12/M02 A3016 RMK A01 T01221022  RH  037%=      5-min Rain = 0
KAOS 152130Z 34005KT 12/M02 A3016 RMK A01 T01231020  RH  037%=      5-min Rain = 0
KAOS 152135Z 32005KT 12/M02 A3016 RMK A01 T01241020  RH  037%=      5-min Rain = 0
KAOS 152140Z 25003KT 13/M03 A3016 RMK A01 T01251027  RH  035%=      5-min Rain = 0
KAOS 152145Z 29004KT 13/M03 A3016 RMK A01 T01251028  RH  035%=      5-min Rain = 0
KAOS 152150Z 30007KT 13/M02 A3015 RMK A01 T01251021  RH  036%=      5-min Rain = 0
KAOS 152155Z 28005KT 12/M02 A3015 RMK A01 T01241021  RH  037%=      5-min Rain = 0
KAOS 152200Z 28004KT 13/M03 A3015 RMK A01 T01251026  RH  035%=      5-min Rain = 0
KAOS 152205Z 28003KT 13/M02 A3015 RMK A01 T01261024  RH  035%=      5-min Rain = 0
KAOS 152210Z 32003KT 13/M02 A3015 RMK A01 T01271024  RH  035%=      5-min Rain = 0
KAOS 152215Z 32003KT 13/M02 A3015 RMK A01 T01281022  RH  036%=      5-min Rain = 0
KAOS 152220Z 28007KT 13/M02 A3015 RMK A01 T01281017  RH  037%=      5-min Rain = 0
KAOS 152225Z 26006KT 13/M02 A3015 RMK A01 T01271020  RH  036%=      5-min Rain = 0
KAOS 152230Z 25006KT 13/M02 A3015 RMK A01 T01271022  RH  036%=      5-min Rain = 0
KAOS 152235Z 25003G9KT 13/M03 A3014 RMK A01 T01281025  RH  035%=      5-min Rain = 0
KAOS 152240Z 26004KT 13/M02 A3014 RMK A01 T01281022  RH  035%=      5-min Rain = 0
KAOS 152245Z 29003G8KT 13/M03 A3014 RMK A01 T01311026  RH  034%=      5-min Rain = 0
KAOS 152250Z 34004KT 13/M03 A3014 RMK A01 T01271030  RH  034%=      5-min Rain = 0
KAOS 152255Z 30002KT 13/M03 A3014 RMK A01 T01281025  RH  035%=      5-min Rain = 0
KAOS 152300Z 26003KT 13/M03 A3014 RMK A01 T01301028  RH  034%=      5-min Rain = 0
KAOS 152305Z 23003KT 13/M03 A3014 RMK A01 T01301032  RH  033%=      5-min Rain = 0
KAOS 152310Z 23003KT 13/M03 A3014 RMK A01 T01311030  RH  033%=      5-min Rain = 0
KAOS 152315Z 24006KT 13/M03 A3014 RMK A01 T01301025  RH  034%=      5-min Rain = 0
KAOS 152320Z 28003KT 13/M03 A3013 RMK A01 T01291031  RH  033%=      5-min Rain = 0
KAOS 152325Z 27003KT 13/M03 A3013 RMK A01 T01291031  RH  033%=      5-min Rain = 0
KAOS 152330Z 27004KT 13/M03 A3013 RMK A01 T01311026  RH  034%=      5-min Rain = 0
KAOS 152335Z 27004KT 13/M03 A3013 RMK A01 T01291025  RH  034%=      5-min Rain = 0
KAOS 152340Z 26004KT 13/M02 A3013 RMK A01 T01291024  RH  035%=      5-min Rain = 0
KAOS 152345Z 27004KT 13/M03 A3013 RMK A01 T01281027  RH  034%=      5-min Rain = 0
KAOS 152350Z 27004KT 13/M03 A3013 RMK A01 T01271026  RH  035%=      5-min Rain = 0
KAOS 152355Z 26003KT 13/M02 A3013 RMK A01 T01261023  RH  036%=      5-min Rain = 0
KAOS 160000Z 28004KT 13/M02 A3012 RMK A01 T01261018  RH  037%=      5-min Rain = 0
KAOS 160005Z 28004KT 12/M03 A3012 RMK A01 T01241027  RH  035%=      5-min Rain = 0
KAOS 160010Z 27003KT 12/M01 A3012 RMK A01 T01241010  RH  040%=      5-min Rain = 0
KAOS 160015Z 24002KT 12/M00 A3012 RMK A01 T01221002  RH  043%=      5-min Rain = 0
KAOS 160020Z 23002KT 12/00 A3012 RMK A01 T01200002  RH  045%=      5-min Rain = 0
KAOS 160025Z 21003KT 12/M00 A3012 RMK A01 T01151001  RH  045%=      5-min Rain = 0
KAOS 160030Z 20005KT 10/M01 A3012 RMK A01 T01031008  RH  046%=      5-min Rain = 0
KAOS 160035Z 19004KT 10/M01 A3012 RMK A01 T00961013  RH  047%=      5-min Rain = 0
KAOS 160040Z 19004KT 09/M01 A3012 RMK A01 T00941014  RH  047%=      5-min Rain = 0
KAOS 160045Z 19005KT 09/M01 A3012 RMK A01 T00881011  RH  050%=      5-min Rain = 0
KAOS 160050Z 18005KT 08/M00 A3012 RMK A01 T00811003  RH  056%=      5-min Rain = 0
KAOS 160055Z 19006KT 08/M00 A3012 RMK A01 T00771002  RH  058%=      5-min Rain = 0
KAOS 160100Z 19005KT 07/M00 A3012 RMK A01 T00711001  RH  061%=      5-min Rain = 0
KAOS 160105Z 18005KT 07/00 A3012 RMK A01 T00660000  RH  063%=      5-min Rain = 0
KAOS 160110Z 19005KT 06/00 A3012 RMK A01 T00630001  RH  065%=      5-min Rain = 0
KAOS 160115Z 20004KT 06/00 A3012 RMK A01 T00620002  RH  067%=      5-min Rain = 0
KAOS 160120Z 21004KT 06/00 A3012 RMK A01 T00610000  RH  066%=      5-min Rain = 0
KAOS 160125Z 21004KT 06/00 A3012 RMK A01 T00580000  RH  067%=      5-min Rain = 0
KAOS 160130Z 20003KT 06/00 A3012 RMK A01 T00560003  RH  070%=      5-min Rain = 0
KAOS 160135Z 20003KT 06/00 A3012 RMK A01 T00550003  RH  070%=      5-min Rain = 0
KAOS 160140Z 21003KT 05/00 A3012 RMK A01 T00530001  RH  070%=      5-min Rain = 0
KAOS 160145Z 20004KT 05/00 A3012 RMK A01 T00530001  RH  070%=      5-min Rain = 0
KAOS 160150Z 20005KT 05/00 A3012 RMK A01 T00530001  RH  070%=      5-min Rain = 0
KAOS 160155Z 20005KT 05/00 A3012 RMK A01 T00520001  RH  070%=      5-min Rain = 0
KAOS 160200Z 19005KT 05/00 A3012 RMK A01 T00510002  RH  072%=      5-min Rain = 0
KAOS 160205Z 19005KT 05/00 A3012 RMK A01 T00490003  RH  073%=      5-min Rain = 0
KAOS 160210Z 19005KT 05/00 A3013 RMK A01 T00460004  RH  075%=      5-min Rain = 0
KAOS 160215Z 19004KT 04/00 A3013 RMK A01 T00430003  RH  076%=      5-min Rain = 0
KAOS 160220Z 20004KT 04/00 A3013 RMK A01 T00430004  RH  077%=      5-min Rain = 0
KAOS 160225Z 20004KT 04/00 A3013 RMK A01 T00440004  RH  076%=      5-min Rain = 0
KAOS 160230Z 20005KT 05/00 A3013 RMK A01 T00460003  RH  075%=      5-min Rain = 0
KAOS 160235Z 20005KT 05/00 A3013 RMK A01 T00450002  RH  075%=      5-min Rain = 0
KAOS 160240Z 20006KT 04/00 A3013 RMK A01 T00420002  RH  076%=      5-min Rain = 0
KAOS 160245Z 20005KT 04/00 A3013 RMK A01 T00390002  RH  078%=      5-min Rain = 0
KAOS 160250Z 20005KT 04/00 A3013 RMK A01 T00370003  RH  079%=      5-min Rain = 0
KAOS 160255Z 20004KT 04/00 A3013 RMK A01 T00370004  RH  080%=      5-min Rain = 0
KAOS 160300Z 20005KT 04/00 A3013 RMK A01 T00370004  RH  080%=      5-min Rain = 0
KAOS 160305Z 20005KT 04/00 A3013 RMK A01 T00360002  RH  080%=      5-min Rain = 0
KAOS 160310Z 21006KT 04/00 A3013 RMK A01 T00350002  RH  080%=      5-min Rain = 0
KAOS 160315Z 21006KT 03/00 A3013 RMK A01 T00330002  RH  081%=      5-min Rain = 0
KAOS 160320Z 21006KT 03/00 A3013 RMK A01 T00330002  RH  081%=      5-min Rain = 0
KAOS 160325Z 21006KT 03/00 A3013 RMK A01 T00320001  RH  081%=      5-min Rain = 0
KAOS 160330Z 21005KT 03/00 A3014 RMK A01 T003000-0  RH  082%=      5-min Rain = 0
KAOS 160335Z 21005KT 03/00 A3014 RMK A01 T002900-0  RH  082%=      5-min Rain = 0
KAOS 160340Z 20006KT 03/M00 A3014 RMK A01 T00271001  RH  083%=      5-min Rain = 0
KAOS 160345Z 21005KT 02/M00 A3014 RMK A01 T00241003  RH  083%=      5-min Rain = 0
KAOS 160350Z 21005KT 02/M00 A3014 RMK A01 T00231003  RH  084%=      5-min Rain = 0
KAOS 160355Z 21006KT 02/M00 A3014 RMK A01 T00221003  RH  085%=      5-min Rain = 0
KAOS 160400Z 21007KT 02/M00 A3014 RMK A01 T00211003  RH  085%=      5-min Rain = 0
KAOS 160405Z 21007KT 02/M00 A3014 RMK A01 T00231002  RH  084%=      5-min Rain = 0
KAOS 160410Z 21008KT 03/M00 A3014 RMK A01 T00251002  RH  083%=      5-min Rain = 0
KAOS 160415Z 21008KT 03/M00 A3014 RMK A01 T00271002  RH  082%=      5-min Rain = 0
KAOS 160420Z 22009KT 03/M00 A3014 RMK A01 T00281002  RH  081%=      5-min Rain = 0
KAOS 160425Z 22009KT 03/M00 A3014 RMK A01 T00291003  RH  080%=      5-min Rain = 0
KAOS 160430Z 22009KT 03/M00 A3014 RMK A01 T00291004  RH  080%=      5-min Rain = 0
KAOS 160435Z 22009KT 03/M00 A3014 RMK A01 T00281004  RH  080%=      5-min Rain = 0
KAOS 160440Z 22008KT 03/M00 A3013 RMK A01 T00261004  RH  081%=      5-min Rain = 0
KAOS 160445Z 22009KT 02/M01 A3013 RMK A01 T00241005  RH  082%=      5-min Rain = 0
KAOS 160450Z 22008KT 02/M01 A3013 RMK A01 T00231006  RH  082%=      5-min Rain = 0
KAOS 160455Z 22008KT 02/M01 A3013 RMK A01 T00221006  RH  082%=      5-min Rain = 0
KAOS 160500Z 22008KT 02/M01 A3013 RMK A01 T00211007  RH  083%=      5-min Rain = 0
KAOS 160505Z 22008KT 02/M01 A3013 RMK A01 T00201008  RH  083%=      5-min Rain = 0
KAOS 160510Z 21008KT 02/M01 A3013 RMK A01 T00191009  RH  083%=      5-min Rain = 0
KAOS 160515Z 21009KT 02/M01 A3013 RMK A01 T00171009  RH  084%=      5-min Rain = 0
KAOS 160520Z 21008KT 02/M01 A3013 RMK A01 T00161009  RH  084%=      5-min Rain = 0
KAOS 160525Z 21007KT 02/M01 A3013 RMK A01 T00151010  RH  084%=      5-min Rain = 0
KAOS 160530Z 21007KT 01/M01 A3013 RMK A01 T00131011  RH  085%=      5-min Rain = 0
KAOS 160535Z 21007KT 01/M01 A3012 RMK A01 T00111011  RH  086%=      5-min Rain = 0
KAOS 160540Z 21008KT 01/M01 A3012 RMK A01 T00091011  RH  087%=      5-min Rain = 0
KAOS 160545Z 21009KT 01/M01 A3012 RMK A01 T00111009  RH  087%=      5-min Rain = 0
KAOS 160550Z 21009KT 01/M01 A3012 RMK A01 T00131009  RH  086%=      5-min Rain = 0
KAOS 160555Z 21009KT 01/M01 A3012 RMK A01 T00131010  RH  086%=      5-min Rain = 0

Page generated in 0.0261 seconds.